createdAt,value
2023-03-14T00:11:07.491Z,89.67
2023-03-14T00:26:13.793Z,88.39
2023-03-14T00:41:19.653Z,87.00
2023-03-14T00:56:23.970Z,86.53
2023-03-14T01:11:32.106Z,85.38
2023-03-14T01:26:36.530Z,83.67
2023-03-14T01:41:41.940Z,82.88
2023-03-14T01:56:51.364Z,82.16
2023-03-14T02:11:54.737Z,81.07
2023-03-14T02:27:21.693Z,80.19
2023-03-14T02:42:25.212Z,79.64
2023-03-14T02:57:29.316Z,78.84
2023-03-14T03:12:33.190Z,77.80
2023-03-14T03:27:37.815Z,76.71
2023-03-14T03:42:42.010Z,76.56
2023-03-14T03:57:46.210Z,77.00
2023-03-14T04:12:49.493Z,76.65
2023-03-14T04:27:56.732Z,77.09
2023-03-14T04:43:03.106Z,77.79
2023-03-14T04:58:07.414Z,79.17
2023-03-14T05:13:11.045Z,80.63
2023-03-14T05:28:50.734Z,81.40
2023-03-14T05:44:08.924Z,81.98
2023-03-14T05:59:12.329Z,83.34
2023-03-14T06:14:22.002Z,84.88
2023-03-14T06:29:25.918Z,84.68
2023-03-14T06:44:29.447Z,84.54
2023-03-14T06:59:33.033Z,83.50
2023-03-14T07:14:36.270Z,80.37
2023-03-14T07:29:39.544Z,78.10
2023-03-14T07:44:42.910Z,75.63
2023-03-14T07:59:46.121Z,72.73
2023-03-14T08:14:49.250Z,70.48
2023-03-14T08:29:52.433Z,68.91
2023-03-14T08:44:55.914Z,68.02
2023-03-14T08:59:59.155Z,68.40
2023-03-14T09:15:02.868Z,69.01
2023-03-14T09:30:06.525Z,69.62
2023-03-14T09:45:25.636Z,70.13
2023-03-14T10:00:30.060Z,70.09
2023-03-14T10:15:34.889Z,70.12
2023-03-14T10:30:46.662Z,70.84
2023-03-14T10:45:59.069Z,71.42
2023-03-14T11:01:25.474Z,71.83
2023-03-14T11:17:08.545Z,71.55
2023-03-14T11:32:34.560Z,71.04
2023-03-14T11:47:42.926Z,71.31
2023-03-14T12:02:56.874Z,72.24
2023-03-14T12:18:00.120Z,72.89
2023-03-14T12:33:18.632Z,73.50
2023-03-14T12:48:27.335Z,74.34
2023-03-14T13:03:59.373Z,73.98
2023-03-14T13:19:12.716Z,73.83
2023-03-14T13:34:16.400Z,72.63
2023-03-14T13:49:25.038Z,71.96
2023-03-14T14:04:29.032Z,70.72
2023-03-14T14:19:35.729Z,64.84
2023-03-14T14:35:05.093Z,58.85
2023-03-14T14:50:21.990Z,63.25
2023-03-14T15:05:28.238Z,68.59
2023-03-14T15:20:31.696Z,69.52
2023-03-14T15:35:34.892Z,69.31
2023-03-14T15:50:38.212Z,70.80
2023-03-14T16:05:41.790Z,72.79
2023-03-14T16:20:48.528Z,74.51
2023-03-14T16:36:06.369Z,75.25
2023-03-14T16:51:10.171Z,76.09
2023-03-14T17:06:16.827Z,78.02
2023-03-14T17:21:20.894Z,79.41
2023-03-14T17:36:29.015Z,80.67
2023-03-14T17:51:33.554Z,81.20
2023-03-14T18:06:39.523Z,81.98
2023-03-14T18:21:44.499Z,82.04
2023-03-14T18:36:48.483Z,82.14
2023-03-14T18:51:52.712Z,81.79
2023-03-14T19:06:56.574Z,81.92
2023-03-14T19:22:01.520Z,81.55
2023-03-14T19:37:05.226Z,81.84
2023-03-14T19:52:08.520Z,81.41
2023-03-14T20:07:14.220Z,81.64
2023-03-14T20:22:17.723Z,82.14
2023-03-14T20:37:24.780Z,82.68
2023-03-14T20:52:29.268Z,86.66
2023-03-14T21:07:42.174Z,88.07
2023-03-14T21:22:45.668Z,90.42
2023-03-14T21:37:49.054Z,91.47
2023-03-14T21:52:57.109Z,94.48
2023-03-14T22:08:00.500Z,90.56
2023-03-14T22:23:04.477Z,84.12
2023-03-14T22:38:08.127Z,82.44
2023-03-14T22:53:11.529Z,81.62
2023-03-14T23:08:15.083Z,81.08
2023-03-14T23:23:18.364Z,80.94
2023-03-14T23:38:22.399Z,81.32
2023-03-14T23:53:27.455Z,81.53
